createdAt,value
2023-05-07T00:00:12.534Z,96778.00
2023-05-07T00:02:40.065Z,96778.00
2023-05-07T00:05:08.345Z,96792.00
2023-05-07T00:07:35.773Z,96777.00
2023-05-07T00:10:03.846Z,96773.00
2023-05-07T00:12:34.725Z,96773.00
2023-05-07T00:15:03.747Z,96769.00
2023-05-07T00:17:31.483Z,96763.00
2023-05-07T00:19:58.698Z,96762.00
2023-05-07T00:22:25.886Z,96770.00
2023-05-07T00:24:53.080Z,96764.00
2023-05-07T00:27:20.424Z,96764.00
2023-05-07T00:29:47.586Z,96762.00
2023-05-07T00:32:14.839Z,96759.00
2023-05-07T00:34:42.159Z,96756.00
2023-05-07T00:37:09.850Z,96756.00
2023-05-07T00:39:37.102Z,96756.00
2023-05-07T00:42:04.502Z,96757.00
2023-05-07T00:44:31.689Z,96750.00
2023-05-07T00:46:59.370Z,96760.00
2023-05-07T00:49:57.709Z,96752.00
2023-05-07T00:52:27.238Z,96758.00
2023-05-07T00:54:55.957Z,96760.00
2023-05-07T00:57:23.791Z,96759.00
2023-05-07T00:59:51.776Z,96759.00
2023-05-07T01:02:19.008Z,96756.00
2023-05-07T01:04:49.226Z,96747.00
2023-05-07T01:07:16.987Z,96753.00
2023-05-07T01:09:44.216Z,96760.00
2023-05-07T01:12:12.109Z,96752.00
2023-05-07T01:14:39.306Z,96752.00
2023-05-07T01:17:07.711Z,96750.00
2023-05-07T01:19:35.063Z,96751.00
2023-05-07T01:22:09.720Z,96746.00
2023-05-07T01:24:38.520Z,96741.00
2023-05-07T01:27:05.921Z,96748.00
2023-05-07T01:30:10.451Z,96744.00
2023-05-07T01:33:06.099Z,96744.00
2023-05-07T01:35:37.721Z,96735.00
2023-05-07T01:38:06.977Z,96742.00
2023-05-07T01:40:35.468Z,96745.00
2023-05-07T01:43:04.555Z,96742.00
2023-05-07T01:45:32.479Z,96735.00
2023-05-07T01:48:03.988Z,96736.00
2023-05-07T01:50:32.568Z,96749.00
2023-05-07T01:52:59.764Z,96756.00
2023-05-07T01:55:27.000Z,96750.00
2023-05-07T01:57:54.187Z,96755.00
2023-05-07T02:00:21.703Z,96736.00
2023-05-07T02:02:49.052Z,96742.00
2023-05-07T02:05:16.362Z,96749.00
2023-05-07T02:07:43.557Z,96747.00
2023-05-07T02:10:11.288Z,96750.00
2023-05-07T02:12:38.665Z,96750.00
2023-05-07T02:15:06.562Z,96750.00
2023-05-07T02:17:34.030Z,96759.00
2023-05-07T02:20:01.334Z,96757.00
2023-05-07T02:22:28.515Z,96765.00
2023-05-07T02:24:55.673Z,96768.00
2023-05-07T02:27:22.882Z,96761.00
2023-05-07T02:29:50.075Z,96764.00
2023-05-07T02:32:17.296Z,96760.00
2023-05-07T02:34:45.049Z,96758.00
2023-05-07T02:37:12.197Z,96758.00
2023-05-07T02:39:39.364Z,96756.00
2023-05-07T02:42:06.533Z,96763.00
2023-05-07T02:44:33.783Z,96751.00
2023-05-07T02:47:00.970Z,96754.00
2023-05-07T02:49:28.208Z,96749.00
2023-05-07T02:51:56.427Z,96744.00
2023-05-07T02:54:23.595Z,96755.00
2023-05-07T02:56:50.987Z,96747.00
2023-05-07T02:59:18.157Z,96732.00
2023-05-07T03:01:46.351Z,96744.00
2023-05-07T03:04:13.569Z,96741.00
2023-05-07T03:06:40.772Z,96734.00
2023-05-07T03:09:08.115Z,96736.00
2023-05-07T03:11:36.574Z,96741.00
2023-05-07T03:14:03.851Z,96742.00
2023-05-07T03:16:31.134Z,96735.00
2023-05-07T03:18:58.387Z,96729.00
2023-05-07T03:21:27.362Z,96726.00
2023-05-07T03:23:54.583Z,96727.00
2023-05-07T03:26:21.451Z,96728.00
2023-05-07T03:28:48.265Z,96741.00
2023-05-07T03:31:15.149Z,96749.00
2023-05-07T03:33:55.520Z,96734.00
2023-05-07T03:36:22.851Z,96731.00
2023-05-07T03:38:50.620Z,96740.00
2023-05-07T03:41:17.480Z,96730.00
2023-05-07T03:43:44.234Z,96740.00
2023-05-07T03:46:11.048Z,96742.00
2023-05-07T03:48:37.839Z,96731.00
2023-05-07T03:51:04.763Z,96739.00
2023-05-07T03:53:31.540Z,96749.00
2023-05-07T03:55:58.364Z,96752.00
2023-05-07T03:58:25.223Z,96752.00
2023-05-07T04:00:52.032Z,96761.00
2023-05-07T04:03:18.910Z,96765.00
2023-05-07T04:05:45.742Z,96765.00
2023-05-07T04:08:12.536Z,96774.00
2023-05-07T04:10:42.566Z,96774.00
2023-05-07T04:13:09.368Z,96774.00
2023-05-07T04:15:37.348Z,96769.00
2023-05-07T04:18:04.269Z,96770.00
2023-05-07T04:20:31.133Z,96769.00
2023-05-07T04:22:57.904Z,96763.00
2023-05-07T04:25:27.356Z,96770.00
2023-05-07T04:27:55.468Z,96768.00
2023-05-07T04:30:24.119Z,96780.00
2023-05-07T04:32:51.076Z,96777.00
2023-05-07T04:35:18.397Z,96776.00
2023-05-07T04:37:45.547Z,96780.00
2023-05-07T04:40:12.633Z,96776.00
2023-05-07T04:42:39.575Z,96785.00
2023-05-07T04:45:07.275Z,96792.00
2023-05-07T04:47:34.110Z,96787.00
2023-05-07T04:50:00.917Z,96789.00
2023-05-07T04:52:27.777Z,96797.00
2023-05-07T04:54:54.580Z,96792.00
2023-05-07T04:57:21.356Z,96789.00
2023-05-07T04:59:48.187Z,96788.00
2023-05-07T05:02:17.594Z,96790.00
2023-05-07T05:04:46.421Z,96792.00
2023-05-07T05:07:13.196Z,96799.00
2023-05-07T05:09:39.980Z,96800.00
2023-05-07T05:12:08.275Z,96802.00
2023-05-07T05:14:35.054Z,96810.00
2023-05-07T05:17:01.837Z,96801.00
2023-05-07T05:19:28.594Z,96806.00
2023-05-07T05:21:55.415Z,96815.00
2023-05-07T05:24:22.210Z,96819.00
2023-05-07T05:26:48.991Z,96830.00
2023-05-07T05:29:15.859Z,96839.00
2023-05-07T05:31:42.923Z,96836.00
2023-05-07T05:34:09.771Z,96840.00
2023-05-07T05:36:36.537Z,96830.00
2023-05-07T05:39:03.363Z,96836.00
2023-05-07T05:41:30.625Z,96824.00
2023-05-07T05:43:57.409Z,96821.00
2023-05-07T05:46:24.276Z,96823.00
2023-05-07T05:48:51.155Z,96813.00
2023-05-07T05:51:17.909Z,96821.00
2023-05-07T05:53:44.740Z,96827.00
2023-05-07T05:56:11.595Z,96834.00
2023-05-07T05:58:38.410Z,96840.00
2023-05-07T06:01:06.213Z,96855.00
2023-05-07T06:03:35.549Z,96865.00
2023-05-07T06:06:02.308Z,96874.00
2023-05-07T06:08:32.288Z,96871.00
2023-05-07T06:11:00.919Z,96868.00
2023-05-07T06:13:27.811Z,96871.00
2023-05-07T06:15:54.686Z,96881.00
2023-05-07T06:18:21.470Z,96875.00
2023-05-07T06:20:48.367Z,96871.00
2023-05-07T06:23:17.756Z,96878.00
2023-05-07T06:25:51.194Z,96880.00
2023-05-07T06:28:18.126Z,96874.00
2023-05-07T06:30:45.098Z,96870.00
2023-05-07T06:33:12.034Z,96872.00
2023-05-07T06:35:38.938Z,96871.00
2023-05-07T06:38:06.063Z,96873.00
2023-05-07T06:40:32.843Z,96869.00
2023-05-07T06:42:59.619Z,96876.00
2023-05-07T06:45:26.453Z,96878.00
2023-05-07T06:47:53.275Z,96877.00
2023-05-07T06:50:20.726Z,96873.00
2023-05-07T06:52:59.394Z,96877.00
2023-05-07T06:55:44.836Z,96872.00
2023-05-07T06:58:27.660Z,96870.00
2023-05-07T07:00:58.843Z,96879.00
2023-05-07T07:03:36.069Z,96874.00
2023-05-07T07:06:03.521Z,96868.00
2023-05-07T07:08:37.725Z,96869.00
2023-05-07T07:11:30.886Z,96867.00
2023-05-07T07:14:01.532Z,96872.00
2023-05-07T07:16:28.396Z,96871.00
2023-05-07T07:18:55.373Z,96871.00
2023-05-07T07:21:22.161Z,96870.00
2023-05-07T07:23:48.929Z,96870.00
2023-05-07T07:26:15.912Z,96868.00
2023-05-07T07:28:46.770Z,96864.00
2023-05-07T07:31:14.164Z,96871.00
2023-05-07T07:33:41.101Z,96866.00
2023-05-07T07:36:08.458Z,96859.00
2023-05-07T07:38:35.961Z,96853.00
2023-05-07T07:41:03.121Z,96855.00
2023-05-07T07:43:30.154Z,96858.00
2023-05-07T07:45:57.063Z,96855.00
2023-05-07T07:48:24.155Z,96860.00
2023-05-07T07:50:52.191Z,96850.00
2023-05-07T07:53:19.650Z,96852.00
2023-05-07T07:55:46.807Z,96862.00
2023-05-07T07:58:13.634Z,96857.00
2023-05-07T08:00:40.549Z,96865.00
2023-05-07T08:03:10.498Z,96857.00
2023-05-07T08:05:37.507Z,96869.00
2023-05-07T08:08:04.559Z,96866.00
2023-05-07T08:10:35.238Z,96871.00
2023-05-07T08:13:04.451Z,96868.00
2023-05-07T08:15:31.384Z,96869.00
2023-05-07T08:18:00.960Z,96865.00
2023-05-07T08:20:27.854Z,96877.00
2023-05-07T08:22:54.679Z,96868.00
2023-05-07T08:25:21.540Z,96870.00
2023-05-07T08:27:48.298Z,96872.00
2023-05-07T08:30:15.638Z,96872.00
2023-05-07T08:32:42.446Z,96867.00
2023-05-07T08:35:09.754Z,96871.00
2023-05-07T08:37:36.626Z,96871.00
2023-05-07T08:40:04.141Z,96869.00
2023-05-07T08:42:33.503Z,96871.00
2023-05-07T08:45:01.753Z,96862.00
2023-05-07T08:47:36.494Z,96876.00
2023-05-07T08:50:03.849Z,96871.00
2023-05-07T08:52:30.684Z,96876.00
2023-05-07T08:54:58.022Z,96874.00
2023-05-07T08:57:25.344Z,96882.00
2023-05-07T08:59:52.266Z,96880.00
2023-05-07T09:02:19.267Z,96877.00
2023-05-07T09:04:46.640Z,96875.00
2023-05-07T09:07:13.812Z,96872.00
2023-05-07T09:09:41.024Z,96883.00
2023-05-07T09:12:08.361Z,96884.00
2023-05-07T09:14:35.561Z,96872.00
2023-05-07T09:17:02.876Z,96876.00
2023-05-07T09:19:30.047Z,96874.00
2023-05-07T09:22:04.599Z,96882.00
2023-05-07T09:24:35.865Z,96880.00
2023-05-07T09:27:03.869Z,96884.00
2023-05-07T09:29:36.001Z,96871.00
2023-05-07T09:32:04.473Z,96881.00
2023-05-07T09:34:32.220Z,96885.00
2023-05-07T09:37:03.744Z,96875.00
2023-05-07T09:39:49.837Z,96877.00
2023-05-07T09:42:17.057Z,96875.00
2023-05-07T09:45:08.845Z,96875.00
2023-05-07T09:47:50.488Z,96880.00
2023-05-07T09:54:02.366Z,96881.00
2023-05-07T09:56:45.034Z,96888.00
2023-05-07T09:59:57.703Z,96893.00
2023-05-07T10:03:03.673Z,96895.00
2023-05-07T10:05:52.307Z,96907.00
2023-05-07T10:08:53.699Z,96899.00
2023-05-07T10:11:21.575Z,96899.00
2023-05-07T10:14:08.016Z,96902.00
2023-05-07T10:16:39.510Z,96897.00
2023-05-07T10:19:19.214Z,96898.00
2023-05-07T10:22:33.884Z,96902.00
2023-05-07T10:25:34.013Z,96908.00
2023-05-07T10:28:33.523Z,96915.00
2023-05-07T10:33:32.694Z,96916.00
2023-05-07T10:36:33.115Z,96912.00
2023-05-07T10:39:32.890Z,96910.00
2023-05-07T10:42:09.916Z,96909.00
2023-05-07T10:44:38.315Z,96917.00
2023-05-07T10:47:23.738Z,96904.00
2023-05-07T10:49:50.829Z,96912.00
2023-05-07T10:52:22.663Z,96919.00
2023-05-07T10:55:15.907Z,96917.00
2023-05-07T10:57:43.082Z,96920.00
2023-05-07T11:00:38.043Z,96926.00
2023-05-07T11:03:09.413Z,96928.00
2023-05-07T11:05:38.452Z,96920.00
2023-05-07T11:08:06.507Z,96927.00
2023-05-07T11:10:57.371Z,96924.00
2023-05-07T11:13:48.452Z,96928.00
2023-05-07T11:16:21.763Z,96923.00
2023-05-07T11:18:54.360Z,96927.00
2023-05-07T11:21:41.728Z,96925.00
2023-05-07T11:24:13.710Z,96940.00
2023-05-07T11:26:49.877Z,96934.00
2023-05-07T11:29:23.173Z,96940.00
2023-05-07T11:31:55.613Z,96944.00
2023-05-07T11:34:27.296Z,96952.00
2023-05-07T11:36:54.319Z,96955.00
2023-05-07T11:39:33.758Z,96967.00
2023-05-07T11:42:01.819Z,96961.00
2023-05-07T11:44:46.866Z,96968.00
2023-05-07T11:47:19.751Z,96972.00
2023-05-07T11:49:54.986Z,96968.00
2023-05-07T11:52:24.230Z,96969.00
2023-05-07T11:54:56.980Z,96966.00
2023-05-07T11:57:25.008Z,96958.00
2023-05-07T11:59:59.533Z,96960.00
2023-05-07T12:02:27.283Z,96962.00
2023-05-07T12:04:55.849Z,96966.00
2023-05-07T12:07:24.876Z,96948.00
2023-05-07T12:09:51.814Z,96956.00
2023-05-07T12:12:19.405Z,96953.00
2023-05-07T12:14:47.246Z,96949.00
2023-05-07T12:17:15.911Z,96951.00
2023-05-07T12:19:44.661Z,96946.00
2023-05-07T12:22:12.336Z,96949.00
2023-05-07T12:24:49.717Z,96948.00
2023-05-07T12:27:17.781Z,96952.00
2023-05-07T12:29:49.102Z,96946.00
2023-05-07T12:32:17.736Z,96941.00
2023-05-07T12:34:50.784Z,96954.00
2023-05-07T12:37:17.873Z,96955.00
2023-05-07T12:40:10.762Z,96957.00
2023-05-07T12:42:38.944Z,96951.00
2023-05-07T12:45:14.720Z,96951.00
2023-05-07T12:47:46.335Z,96946.00
2023-05-07T12:50:15.234Z,96952.00
2023-05-07T12:52:42.313Z,96952.00
2023-05-07T12:55:10.725Z,96957.00
2023-05-07T12:57:43.158Z,96951.00
2023-05-07T13:00:10.906Z,96943.00
2023-05-07T13:02:42.695Z,96944.00
2023-05-07T13:05:10.167Z,96955.00
2023-05-07T13:07:38.399Z,96953.00
2023-05-07T13:10:06.467Z,96959.00
2023-05-07T13:12:33.751Z,96952.00
2023-05-07T13:15:00.595Z,96954.00
2023-05-07T13:17:27.495Z,96955.00
2023-05-07T13:19:54.461Z,96948.00
2023-05-07T13:22:21.251Z,96947.00
2023-05-07T13:24:48.146Z,96941.00
2023-05-07T13:27:14.912Z,96942.00
2023-05-07T13:29:41.689Z,96946.00
2023-05-07T13:32:08.601Z,96945.00
2023-05-07T13:34:35.588Z,96954.00
2023-05-07T13:37:02.364Z,96959.00
2023-05-07T13:39:29.136Z,96960.00
2023-05-07T13:41:55.952Z,96963.00
2023-05-07T13:44:22.863Z,96962.00
2023-05-07T13:46:49.732Z,96957.00
2023-05-07T13:49:16.561Z,96960.00
2023-05-07T13:51:43.318Z,96962.00
2023-05-07T13:54:10.079Z,96961.00
2023-05-07T13:56:36.899Z,96968.00
2023-05-07T13:59:03.751Z,96958.00
2023-05-07T14:01:30.683Z,96965.00
2023-05-07T14:04:00.971Z,96961.00
2023-05-07T14:06:27.887Z,96965.00
2023-05-07T14:08:54.707Z,96959.00
2023-05-07T14:11:22.169Z,96955.00
2023-05-07T14:13:49.054Z,96961.00
2023-05-07T14:16:16.448Z,96953.00
2023-05-07T14:18:43.241Z,96957.00
2023-05-07T14:21:10.862Z,96947.00
2023-05-07T14:23:37.755Z,96944.00
2023-05-07T14:26:04.677Z,96940.00
2023-05-07T14:28:32.021Z,96939.00
2023-05-07T14:30:58.955Z,96931.00
2023-05-07T14:33:25.877Z,96933.00
2023-05-07T14:35:52.646Z,96929.00
2023-05-07T14:38:19.420Z,96933.00
2023-05-07T14:40:49.225Z,96929.00
2023-05-07T14:43:16.031Z,96930.00
2023-05-07T14:45:42.812Z,96929.00
2023-05-07T14:48:10.321Z,96932.00
2023-05-07T14:50:37.215Z,96929.00
2023-05-07T14:53:04.865Z,96931.00
2023-05-07T14:55:33.434Z,96931.00
2023-05-07T14:58:01.431Z,96933.00
2023-05-07T15:00:29.177Z,96928.00
2023-05-07T15:03:12.023Z,96935.00
2023-05-07T15:05:39.144Z,96930.00
2023-05-07T15:08:06.418Z,96938.00
2023-05-07T15:10:41.808Z,96933.00
2023-05-07T15:13:15.598Z,96935.00
2023-05-07T15:15:45.022Z,96937.00
2023-05-07T15:18:11.828Z,96942.00
2023-05-07T15:20:38.683Z,96943.00
2023-05-07T15:23:06.904Z,96947.00
2023-05-07T15:25:35.121Z,96945.00
2023-05-07T15:28:02.001Z,96946.00
2023-05-07T15:30:28.834Z,96951.00
2023-05-07T15:32:55.777Z,96947.00
2023-05-07T15:35:23.117Z,96950.00
2023-05-07T15:37:50.939Z,96943.00
2023-05-07T15:40:18.019Z,96945.00
2023-05-07T15:42:46.783Z,96958.00
2023-05-07T15:45:14.238Z,96956.00
2023-05-07T15:47:41.651Z,96948.00
2023-05-07T15:50:08.928Z,96957.00
2023-05-07T15:52:35.967Z,96960.00
2023-05-07T15:55:03.586Z,96956.00
2023-05-07T15:57:30.493Z,96952.00
2023-05-07T15:59:57.734Z,96956.00
2023-05-07T16:02:24.926Z,96953.00
2023-05-07T16:04:52.069Z,96963.00
2023-05-07T16:07:19.882Z,96958.00
2023-05-07T16:09:47.394Z,96957.00
2023-05-07T16:12:14.269Z,96953.00
2023-05-07T16:14:41.069Z,96950.00
2023-05-07T16:17:08.415Z,96960.00
2023-05-07T16:19:35.332Z,96961.00
2023-05-07T16:22:02.106Z,96960.00
2023-05-07T16:24:28.908Z,96963.00
2023-05-07T16:26:55.929Z,96968.00
2023-05-07T16:29:23.241Z,96963.00
2023-05-07T16:31:50.696Z,96963.00
2023-05-07T16:34:17.507Z,96962.00
2023-05-07T16:36:44.322Z,96962.00
2023-05-07T16:39:11.167Z,96955.00
2023-05-07T16:41:38.594Z,96956.00
2023-05-07T16:44:05.499Z,96957.00
2023-05-07T16:46:32.466Z,96963.00
2023-05-07T16:48:59.292Z,96964.00
2023-05-07T16:51:26.095Z,96959.00
2023-05-07T16:53:52.867Z,96961.00
2023-05-07T16:56:19.852Z,96978.00
2023-05-07T16:58:46.624Z,96978.00
2023-05-07T17:01:15.187Z,96983.00
2023-05-07T17:03:42.271Z,96987.00
2023-05-07T17:06:13.996Z,96984.00
2023-05-07T17:08:44.470Z,96978.00
2023-05-07T17:11:12.426Z,96988.00
2023-05-07T17:13:40.159Z,96992.00
2023-05-07T17:16:06.972Z,97004.00
2023-05-07T17:18:34.245Z,97009.00
2023-05-07T17:21:01.115Z,97003.00
2023-05-07T17:23:28.458Z,97008.00
2023-05-07T17:25:55.232Z,97009.00
2023-05-07T17:28:22.073Z,97015.00
2023-05-07T17:30:49.878Z,97008.00
2023-05-07T17:33:21.394Z,97021.00
2023-05-07T17:35:49.480Z,97026.00
2023-05-07T17:38:16.304Z,97026.00
2023-05-07T17:40:43.041Z,97023.00
2023-05-07T17:43:09.777Z,97029.00
2023-05-07T17:45:36.625Z,97035.00
2023-05-07T17:48:03.855Z,97041.00
2023-05-07T17:50:30.717Z,97047.00
2023-05-07T17:52:57.787Z,97048.00
2023-05-07T17:55:24.628Z,97050.00
2023-05-07T17:57:51.423Z,97053.00
2023-05-07T18:00:18.366Z,97054.00
2023-05-07T18:02:45.276Z,97050.00
2023-05-07T18:05:12.202Z,97054.00
2023-05-07T18:07:39.117Z,97054.00
2023-05-07T18:10:06.543Z,97054.00
2023-05-07T18:12:33.446Z,97054.00
2023-05-07T18:15:00.293Z,97053.00
2023-05-07T18:17:27.806Z,97056.00
2023-05-07T18:19:55.282Z,97062.00
2023-05-07T18:22:22.595Z,97056.00
2023-05-07T18:24:50.807Z,97057.00
2023-05-07T18:27:17.813Z,97061.00
2023-05-07T18:29:44.594Z,97064.00
2023-05-07T18:32:11.871Z,97073.00
2023-05-07T18:34:38.903Z,97068.00
2023-05-07T18:37:06.080Z,97070.00
2023-05-07T18:39:32.961Z,97070.00
2023-05-07T18:42:00.134Z,97073.00
2023-05-07T18:44:27.266Z,97067.00
2023-05-07T18:46:54.177Z,97069.00
2023-05-07T18:49:20.975Z,97071.00
2023-05-07T18:51:49.639Z,97070.00
2023-05-07T18:54:16.439Z,97067.00
2023-05-07T18:56:43.224Z,97076.00
2023-05-07T18:59:10.466Z,97077.00
2023-05-07T19:01:37.283Z,97078.00
2023-05-07T19:04:04.159Z,97081.00
2023-05-07T19:06:33.388Z,97079.00
2023-05-07T19:09:00.735Z,97076.00
2023-05-07T19:11:27.612Z,97077.00
2023-05-07T19:13:54.421Z,97084.00
2023-05-07T19:16:21.259Z,97088.00
2023-05-07T19:18:48.197Z,97090.00
2023-05-07T19:21:14.991Z,97091.00
2023-05-07T19:23:42.157Z,97090.00
2023-05-07T19:26:10.694Z,97099.00
2023-05-07T19:28:39.078Z,97094.00
2023-05-07T19:31:07.237Z,97107.00
2023-05-07T19:33:34.020Z,97109.00
2023-05-07T19:36:00.945Z,97112.00
2023-05-07T19:38:28.112Z,97119.00
2023-05-07T19:40:55.352Z,97112.00
2023-05-07T19:43:22.117Z,97125.00
2023-05-07T19:45:49.960Z,97135.00
2023-05-07T19:48:16.863Z,97132.00
2023-05-07T19:50:43.696Z,97144.00
2023-05-07T19:53:10.869Z,97148.00
2023-05-07T19:55:37.672Z,97153.00
2023-05-07T19:58:04.855Z,97157.00
2023-05-07T20:00:36.609Z,97154.00
2023-05-07T20:03:04.413Z,97165.00
2023-05-07T20:05:34.203Z,97166.00
2023-05-07T20:08:03.857Z,97164.00
2023-05-07T20:10:31.306Z,97169.00
2023-05-07T20:13:04.255Z,97177.00
2023-05-07T20:15:37.581Z,97172.00
2023-05-07T20:18:13.961Z,97183.00
2023-05-07T20:20:45.766Z,97184.00
2023-05-07T20:23:13.192Z,97189.00
2023-05-07T20:25:43.799Z,97186.00
2023-05-07T20:28:13.520Z,97188.00
2023-05-07T20:30:43.658Z,97193.00
2023-05-07T20:33:13.642Z,97197.00
2023-05-07T20:35:44.170Z,97198.00
2023-05-07T20:38:12.770Z,97194.00
2023-05-07T20:40:41.914Z,97205.00
2023-05-07T20:43:10.634Z,97205.00
2023-05-07T20:45:40.334Z,97207.00
2023-05-07T20:48:07.627Z,97210.00
2023-05-07T20:50:34.921Z,97217.00
2023-05-07T20:53:02.245Z,97213.00
2023-05-07T20:55:29.694Z,97221.00
2023-05-07T20:58:00.317Z,97223.00
2023-05-07T21:00:27.232Z,97226.00
2023-05-07T21:02:54.105Z,97224.00
2023-05-07T21:05:21.067Z,97224.00
2023-05-07T21:07:47.863Z,97225.00
2023-05-07T21:10:15.026Z,97210.00
2023-05-07T21:12:41.975Z,97214.00
2023-05-07T21:15:09.986Z,97222.00
2023-05-07T21:17:36.816Z,97214.00
2023-05-07T21:20:04.022Z,97213.00
2023-05-07T21:22:31.218Z,97220.00
2023-05-07T21:24:57.988Z,97220.00
2023-05-07T21:27:24.833Z,97220.00
2023-05-07T21:29:51.588Z,97223.00
2023-05-07T21:32:18.366Z,97225.00
2023-05-07T21:34:46.567Z,97230.00
2023-05-07T21:37:14.134Z,97225.00
2023-05-07T21:39:40.942Z,97223.00
2023-05-07T21:42:07.748Z,97225.00
2023-05-07T21:44:34.577Z,97220.00
2023-05-07T21:47:01.466Z,97228.00
2023-05-07T21:49:28.254Z,97227.00
2023-05-07T21:51:55.164Z,97221.00
2023-05-07T21:54:21.962Z,97227.00
2023-05-07T21:56:50.103Z,97229.00
2023-05-07T21:59:16.991Z,97229.00
2023-05-07T22:01:43.796Z,97225.00
2023-05-07T22:04:11.100Z,97224.00
2023-05-07T22:06:37.974Z,97231.00
2023-05-07T22:09:04.812Z,97235.00
2023-05-07T22:11:31.598Z,97229.00
2023-05-07T22:13:58.411Z,97232.00
2023-05-07T22:16:25.286Z,97225.00
2023-05-07T22:18:52.112Z,97228.00
2023-05-07T22:21:18.907Z,97233.00
2023-05-07T22:23:45.668Z,97222.00
2023-05-07T22:26:15.578Z,97220.00
2023-05-07T22:28:42.368Z,97234.00
2023-05-07T22:31:09.256Z,97232.00
2023-05-07T22:33:36.131Z,97227.00
2023-05-07T22:36:03.192Z,97232.00
2023-05-07T22:38:29.974Z,97240.00
2023-05-07T22:40:56.792Z,97231.00
2023-05-07T22:43:23.574Z,97241.00
2023-05-07T22:45:50.504Z,97236.00
2023-05-07T22:48:17.305Z,97231.00
2023-05-07T22:50:44.083Z,97230.00
2023-05-07T22:53:10.881Z,97231.00
2023-05-07T22:55:37.726Z,97228.00
2023-05-07T22:58:04.518Z,97238.00
2023-05-07T23:00:31.315Z,97236.00
2023-05-07T23:02:58.204Z,97232.00
2023-05-07T23:05:25.090Z,97231.00
2023-05-07T23:07:52.024Z,97233.00
2023-05-07T23:10:18.920Z,97225.00
2023-05-07T23:12:49.271Z,97229.00
2023-05-07T23:15:19.953Z,97232.00
2023-05-07T23:17:47.619Z,97234.00
2023-05-07T23:20:15.094Z,97226.00
2023-05-07T23:22:41.923Z,97231.00
2023-05-07T23:25:09.344Z,97231.00
2023-05-07T23:27:36.155Z,97229.00
2023-05-07T23:30:03.278Z,97227.00
2023-05-07T23:32:31.388Z,97226.00
2023-05-07T23:34:58.258Z,97227.00
2023-05-07T23:37:25.434Z,97227.00
2023-05-07T23:39:55.234Z,97224.00
2023-05-07T23:42:22.259Z,97218.00
2023-05-07T23:44:49.155Z,97223.00
2023-05-07T23:47:15.989Z,97209.00
2023-05-07T23:49:42.745Z,97222.00
2023-05-07T23:52:09.581Z,97211.00
2023-05-07T23:54:36.451Z,97212.00
2023-05-07T23:57:04.400Z,97218.00
2023-05-07T23:59:31.176Z,97214.00
